Elco, Pennsylvania
Current Conditions -  °F | °C
As of 5:53 PM on Saturday 20 Dec 2014 (Local Time) from KAGC Reporting Station
Broken Clouds Broken Clouds  
Wind Chill: 22°   Ceiling: 10000
Heat Index: 28°   Visibility: 10mi
Dew Point: 16°   Wind: 6mph
Humidity: 61%   Direction: 270°W
Pressure: 30.22"   Gusts: NA
Location:  40.08°N, 79.87°W
Report Text: KAGC 202253Z 27005KT 10SM FEW031 BKN100 M02/M09 A3022 RMK AO2 SLP253 T10221089
Loading
Personal Weather Stations






























Interactive Weather Map New forecast layout! Learn more

10-Day Weather Forecast

Advertisements
Track Severe Weather on mobile